Time;durP1;ratioP1;P1;durP2;ratioP2;P2;SDS_P1;SDS_P2;PMS_P1;PMS_P2;Temp;Humidity;BMP_temperature;BMP_pressure;BME280_temperature;BME280_humidity;BME280_pressure;Samples;Min_cycle;Max_cycle;Signal;HPM_P1;HPM_P2
2022/09/25 00:01:14;;;;;;;0.43;0.43;;;13.90;99.90;;;;;;5035675;28;20544;-80
2022/09/25 00:03:40;;;;;;;0.40;0.40;;;14.00;99.90;;;;;;5033223;28;20179;-80
2022/09/25 00:06:10;;;;;;;0.50;0.47;;;14.10;99.90;;;;;;5032552;28;20699;-80
2022/09/25 00:08:36;;;;;;;0.50;0.50;;;14.10;99.90;;;;;;5035807;28;20229;-80
2022/09/25 00:11:07;;;;;;;0.40;0.40;;;14.00;99.90;;;;;;5034393;28;20187;-80
2022/09/25 00:13:32;;;;;;;2.30;1.47;;;13.80;99.90;;;;;;5033765;28;20182;-80
2022/09/25 00:15:58;;;;;;;0.57;0.57;;;13.80;99.90;;;;;;5032083;28;20214;-80
2022/09/25 00:21:12;;;;;;;0.40;0.33;;;14.00;99.90;;;;;;5036082;28;20707;-80
2022/09/25 00:23:40;;;;;;;0.47;0.47;;;14.20;99.90;;;;;;5032589;28;20180;-80
2022/09/25 00:26:07;;;;;;;0.83;0.60;;;14.20;99.90;;;;;;5033093;28;20204;-80
2022/09/25 00:28:35;;;;;;;0.20;0.20;;;14.10;99.90;;;;;;5034382;28;20989;-80
2022/09/25 00:31:01;;;;;;;0.30;0.30;;;14.10;99.90;;;;;;5032828;28;20666;-80
2022/09/25 00:33:27;;;;;;;0.67;0.67;;;14.10;99.90;;;;;;5034641;28;20652;-80
2022/09/25 00:35:53;;;;;;;0.57;0.30;;;14.20;99.90;;;;;;5034102;28;20326;-80
2022/09/25 00:38:18;;;;;;;0.50;0.50;;;14.20;99.90;;;;;;5033901;28;20294;-80
2022/09/25 00:40:44;;;;;;;0.40;0.40;;;14.30;99.90;;;;;;5034085;28;20193;-80
2022/09/25 00:43:38;;;;;;;0.70;0.70;;;14.30;99.90;;;;;;5033767;28;20180;-80
2022/09/25 00:46:18;;;;;;;0.67;0.67;;;14.30;99.90;;;;;;5031336;28;20206;-80
2022/09/25 00:48:50;;;;;;;0.33;0.23;;;14.30;99.90;;;;;;5032277;28;20190;-80
2022/09/25 00:51:19;;;;;;;0.47;0.47;;;14.30;99.90;;;;;;5029842;28;20202;-80
2022/09/25 00:53:45;;;;;;;0.20;0.20;;;14.30;99.90;;;;;;5032623;28;20721;-80
2022/09/25 00:56:12;;;;;;;0.50;0.50;;;14.30;99.90;;;;;;5034564;28;20221;-80
2022/09/25 00:58:39;;;;;;;0.20;0.20;;;14.30;99.90;;;;;;5032925;28;20204;-80
2022/09/25 01:01:06;;;;;;;0.87;0.87;;;14.40;99.90;;;;;;5035128;28;20617;-80
2022/09/25 01:03:33;;;;;;;0.30;0.30;;;14.40;99.90;;;;;;5030723;28;20190;-80
2022/09/25 01:06:00;;;;;;;0.90;0.53;;;14.40;99.90;;;;;;5034399;28;20242;-80
2022/09/25 01:08:30;;;;;;;0.43;0.43;;;14.40;99.90;;;;;;5033785;28;20192;-80
2022/09/25 01:10:56;;;;;;;0.17;0.17;;;14.50;99.90;;;;;;5035065;28;20212;-80
2022/09/25 01:13:22;;;;;;;0.50;0.50;;;14.50;99.90;;;;;;5033240;28;20224;-80
2022/09/25 01:15:53;;;;;;;0.30;0.30;;;14.50;99.90;;;;;;5034808;28;20199;-80
2022/09/25 01:18:56;;;;;;;0.27;0.20;;;14.50;99.90;;;;;;5037071;28;20203;-80
2022/09/25 01:21:38;;;;;;;0.30;0.30;;;14.50;99.90;;;;;;5036311;28;20532;-80
2022/09/25 01:24:33;;;;;;;1.77;0.77;;;14.50;99.90;;;;;;5037330;28;20641;-80
2022/09/25 01:27:29;;;;;;;0.67;0.67;;;14.50;99.90;;;;;;5036500;28;20266;-80
2022/09/25 01:30:11;;;;;;;0.60;0.60;;;14.50;99.90;;;;;;5036474;28;20650;-80
2022/09/25 01:32:50;;;;;;;0.97;0.50;;;14.40;99.90;;;;;;5036989;28;20188;-80
2022/09/25 01:35:33;;;;;;;0.20;0.20;;;14.40;99.90;;;;;;5038831;28;20227;-80
2022/09/25 01:38:20;;;;;;;0.30;0.30;;;14.40;99.90;;;;;;5036762;28;21090;-80
2022/09/25 01:41:16;;;;;;;0.63;0.50;;;14.40;99.90;;;;;;5034933;28;20266;-80
2022/09/25 01:44:15;;;;;;;0.40;0.40;;;14.40;99.90;;;;;;5034435;28;20183;-80
2022/09/25 01:46:52;;;;;;;0.50;0.50;;;14.40;99.90;;;;;;5033853;28;20575;-80
2022/09/25 01:49:25;;;;;;;0.53;0.53;;;14.40;99.90;;;;;;5037301;28;20625;-80
2022/09/25 01:51:53;;;;;;;0.60;0.57;;;14.40;99.90;;;;;;5035610;28;20298;-80
2022/09/25 01:54:35;;;;;;;0.50;0.37;;;14.40;99.90;;;;;;5034964;28;20224;-80
2022/09/25 01:57:09;;;;;;;1.07;0.93;;;14.40;99.90;;;;;;5033558;28;20187;-80
2022/09/25 01:59:47;;;;;;;1.17;0.40;;;14.40;99.90;;;;;;5036737;28;20590;-80
2022/09/25 02:02:19;;;;;;;0.57;0.57;;;14.30;99.90;;;;;;5037025;28;20193;-80
2022/09/25 02:05:11;;;;;;;0.63;0.63;;;14.30;99.90;;;;;;5037553;28;20183;-80
2022/09/25 02:07:49;;;;;;;1.13;0.67;;;14.20;99.90;;;;;;5035393;28;20292;-79
2022/09/25 02:10:20;;;;;;;1.20;1.10;;;14.10;99.90;;;;;;5036218;28;20192;-80
2022/09/25 02:12:54;;;;;;;0.97;0.57;;;14.20;99.90;;;;;;5037530;28;20193;-80
2022/09/25 02:15:29;;;;;;;0.77;0.37;;;14.30;99.90;;;;;;5036767;28;20235;-80
2022/09/25 02:21:04;;;;;;;0.40;0.40;;;14.40;99.90;;;;;;5037032;28;20765;-80
2022/09/25 02:24:00;;;;;;;2.87;0.90;;;14.50;99.90;;;;;;5035117;28;20556;-80
2022/09/25 02:26:30;;;;;;;0.40;0.40;;;14.40;99.90;;;;;;5034293;28;20235;-80
2022/09/25 02:28:57;;;;;;;0.77;0.67;;;14.40;99.90;;;;;;5033171;28;20197;-80
2022/09/25 02:31:29;;;;;;;0.57;0.57;;;14.50;99.90;;;;;;5036524;28;20245;-80
2022/09/25 02:33:56;;;;;;;1.00;0.70;;;14.50;99.90;;;;;;5035543;28;20282;-80
2022/09/25 02:36:24;;;;;;;1.67;0.97;;;14.40;99.90;;;;;;5034731;28;20216;-80
2022/09/25 02:38:52;;;;;;;1.70;0.47;;;14.40;99.90;;;;;;5034957;28;20610;-80
2022/09/25 02:41:31;;;;;;;0.63;0.60;;;14.40;99.90;;;;;;5036170;28;20279;-80
2022/09/25 02:44:21;;;;;;;0.90;0.83;;;14.20;99.90;;;;;;5034610;28;20187;-80
2022/09/25 02:47:22;;;;;;;0.60;0.60;;;14.20;99.90;;;;;;5035714;28;20217;-80
2022/09/25 02:50:04;;;;;;;0.50;0.50;;;14.30;99.90;;;;;;5017130;28;20207;-80
2022/09/25 02:52:41;;;;;;;1.70;0.87;;;14.30;99.90;;;;;;5035132;28;20188;-80
2022/09/25 02:55:18;;;;;;;0.27;0.27;;;14.30;99.90;;;;;;5034748;28;20307;-80
2022/09/25 02:58:03;;;;;;;0.73;0.70;;;14.30;99.90;;;;;;5032753;28;20218;-80
2022/09/25 03:00:30;;;;;;;2.13;1.07;;;14.30;99.90;;;;;;5023383;28;20326;-79
2022/09/25 03:02:58;;;;;;;1.80;1.20;;;14.30;99.90;;;;;;5032250;28;20185;-79
2022/09/25 03:05:25;;;;;;;1.80;0.43;;;14.30;99.90;;;;;;5034096;28;20200;-79
2022/09/25 03:10:37;;;;;;;0.30;0.30;;;14.30;99.90;;;;;;5035754;28;20201;-79
2022/09/25 03:13:30;;;;;;;1.13;0.50;;;14.30;99.90;;;;;;5034858;28;20181;-79
2022/09/25 03:16:18;;;;;;;0.57;0.57;;;14.20;99.90;;;;;;5035061;28;20214;-79
2022/09/25 03:18:44;;;;;;;4.63;0.97;;;14.10;99.90;;;;;;5034568;28;21117;-79
2022/09/25 03:21:10;;;;;;;0.77;0.37;;;13.90;99.90;;;;;;5033473;28;20200;-79
2022/09/25 03:23:36;;;;;;;0.57;0.40;;;13.70;99.90;;;;;;5034418;28;20567;-79
2022/09/25 03:26:03;;;;;;;0.53;0.50;;;13.40;99.90;;;;;;5034608;28;20203;-78
2022/09/25 03:28:29;;;;;;;0.30;0.30;;;13.40;99.90;;;;;;5033329;28;20727;-78
2022/09/25 03:30:59;;;;;;;0.53;0.53;;;13.50;99.90;;;;;;5033073;28;20290;-79
2022/09/25 03:33:27;;;;;;;0.50;0.50;;;13.60;99.90;;;;;;5032480;28;20266;-79
2022/09/25 03:36:09;;;;;;;0.60;0.50;;;13.50;99.90;;;;;;5031696;28;20291;-79
2022/09/25 03:38:35;;;;;;;0.50;0.50;;;13.50;99.90;;;;;;5034515;28;20214;-79
2022/09/25 03:41:01;;;;;;;0.50;0.50;;;13.70;99.90;;;;;;5032859;28;20175;-79
2022/09/25 03:43:28;;;;;;;0.63;0.63;;;13.80;99.90;;;;;;5032576;28;20222;-79
2022/09/25 03:45:53;;;;;;;0.70;0.70;;;13.70;99.90;;;;;;5033345;28;20198;-79
2022/09/25 03:48:20;;;;;;;0.37;0.37;;;13.60;99.90;;;;;;5033935;28;20871;-79
2022/09/25 03:50:49;;;;;;;0.30;0.30;;;13.60;99.90;;;;;;5032198;28;21066;-79
2022/09/25 03:53:15;;;;;;;0.30;0.30;;;13.70;99.90;;;;;;5032828;28;20223;-79
2022/09/25 03:55:40;;;;;;;0.53;0.40;;;13.80;99.90;;;;;;5029544;28;20232;-79
2022/09/25 03:58:05;;;;;;;0.80;0.80;;;13.80;99.90;;;;;;5033013;28;20210;-79
2022/09/25 04:00:31;;;;;;;0.30;0.30;;;13.90;99.90;;;;;;5031307;28;20229;-79
2022/09/25 04:02:58;;;;;;;0.30;0.30;;;14.00;99.90;;;;;;5033543;28;20197;-79
2022/09/25 04:05:24;;;;;;;0.43;0.43;;;14.10;99.90;;;;;;5031266;28;20196;-79
2022/09/25 04:07:49;;;;;;;1.00;0.90;;;14.00;99.90;;;;;;5029444;28;20271;-79
2022/09/25 04:10:15;;;;;;;0.67;0.40;;;13.90;99.90;;;;;;5028969;28;20554;-79
2022/09/25 04:12:42;;;;;;;0.60;0.43;;;14.00;99.90;;;;;;5030443;28;20205;-79
2022/09/25 04:15:08;;;;;;;0.27;0.27;;;14.00;99.90;;;;;;5030872;28;20677;-79
2022/09/25 04:17:34;;;;;;;0.20;0.20;;;14.10;99.90;;;;;;5032470;28;20261;-79
2022/09/25 04:20:00;;;;;;;0.37;0.37;;;14.10;99.90;;;;;;5031869;28;20179;-79
2022/09/25 04:22:25;;;;;;;0.30;0.30;;;14.10;99.90;;;;;;5032378;28;20194;-79
2022/09/25 04:24:52;;;;;;;0.37;0.37;;;14.10;99.90;;;;;;5030820;28;20210;-79
2022/09/25 04:27:20;;;;;;;0.43;0.43;;;14.20;99.90;;;;;;5031154;28;20271;-79
2022/09/25 04:29:46;;;;;;;0.50;0.50;;;14.10;99.90;;;;;;5031944;28;20185;-79
2022/09/25 04:34:57;;;;;;;0.30;0.30;;;14.20;99.90;;;;;;5033507;28;20746;-79
2022/09/25 04:37:25;;;;;;;0.70;0.70;;;14.20;99.90;;;;;;5034034;28;20212;-79
2022/09/25 04:39:54;;;;;;;0.10;0.10;;;14.20;99.90;;;;;;5031044;28;20178;-79
2022/09/25 04:42:23;;;;;;;0.57;0.57;;;14.20;99.90;;;;;;5033242;28;20183;-80
2022/09/25 04:44:51;;;;;;;0.43;0.43;;;14.20;99.90;;;;;;5030420;28;20175;-80
2022/09/25 04:47:17;;;;;;;0.57;0.30;;;14.20;99.90;;;;;;5031730;28;20220;-80
2022/09/25 04:49:42;;;;;;;0.30;0.30;;;14.20;99.90;;;;;;5032059;28;20257;-80
2022/09/25 04:52:08;;;;;;;0.37;0.37;;;14.20;99.90;;;;;;5033574;28;20197;-80
2022/09/25 04:54:33;;;;;;;0.53;0.53;;;14.20;99.90;;;;;;5031401;28;20267;-79
2022/09/25 04:56:58;;;;;;;0.50;0.37;;;14.10;99.90;;;;;;5032068;28;20667;-79
2022/09/25 04:59:24;;;;;;;1.13;0.53;;;14.10;99.90;;;;;;5030849;28;20210;-79
2022/09/25 05:01:49;;;;;;;0.40;0.30;;;14.10;99.90;;;;;;5033062;28;20212;-80
2022/09/25 05:04:15;;;;;;;0.30;0.30;;;14.10;99.90;;;;;;5032862;28;20270;-79
2022/09/25 05:06:41;;;;;;;0.30;0.30;;;14.10;99.90;;;;;;5030821;28;20574;-80
2022/09/25 05:09:06;;;;;;;0.83;0.50;;;14.20;99.90;;;;;;5031406;28;20186;-79
2022/09/25 05:11:32;;;;;;;0.70;0.40;;;14.10;99.90;;;;;;5030948;28;20687;-80
2022/09/25 05:13:57;;;;;;;0.23;0.23;;;13.90;99.90;;;;;;5031591;28;20179;-80
2022/09/25 05:16:23;;;;;;;0.70;0.60;;;13.90;99.90;;;;;;5029922;28;20202;-79
2022/09/25 05:18:48;;;;;;;0.97;0.40;;;14.00;99.90;;;;;;5030089;28;20199;-79
2022/09/25 05:21:14;;;;;;;0.33;0.33;;;14.00;99.90;;;;;;5032283;28;20184;-79
2022/09/25 05:23:39;;;;;;;0.30;0.30;;;14.00;99.90;;;;;;5029095;28;21052;-79
2022/09/25 05:26:05;;;;;;;0.37;0.37;;;14.00;99.90;;;;;;5032666;28;20218;-79
2022/09/25 05:28:31;;;;;;;0.40;0.40;;;14.10;99.90;;;;;;5031707;28;20203;-79
2022/09/25 05:31:02;;;;;;;0.90;0.60;;;14.10;99.90;;;;;;5030676;28;20660;-79
2022/09/25 05:33:28;;;;;;;0.33;0.33;;;14.00;99.90;;;;;;5032277;28;20196;-80
2022/09/25 05:35:53;;;;;;;0.20;0.20;;;13.90;99.90;;;;;;5031710;28;20293;-80
2022/09/25 05:38:19;;;;;;;1.10;1.00;;;14.00;99.90;;;;;;5032090;28;20223;-80
2022/09/25 05:40:44;;;;;;;0.47;0.47;;;14.00;99.90;;;;;;5033233;28;20202;-79
2022/09/25 05:43:11;;;;;;;0.70;0.67;;;14.10;99.90;;;;;;5033106;28;20213;-80
2022/09/25 05:45:37;;;;;;;4.10;0.90;;;14.10;99.90;;;;;;5031460;28;20214;-80
2022/09/25 05:48:05;;;;;;;2.60;2.30;;;14.20;99.90;;;;;;5031812;28;20183;-79
2022/09/25 05:50:31;;;;;;;1.87;1.10;;;14.20;99.90;;;;;;5030502;28;20199;-79
2022/09/25 05:52:58;;;;;;;2.97;2.27;;;14.00;99.90;;;;;;5031063;28;20559;-80
2022/09/25 05:55:24;;;;;;;2.30;2.10;;;13.90;99.90;;;;;;5032840;28;20556;-79
2022/09/25 05:57:49;;;;;;;0.47;0.47;;;13.90;99.90;;;;;;5030602;28;20230;-79
2022/09/25 06:00:16;;;;;;;4.73;1.10;;;13.70;99.90;;;;;;5030836;28;20570;-79
2022/09/25 06:02:42;;;;;;;1.20;0.77;;;13.60;99.90;;;;;;5033034;28;20187;-80
2022/09/25 06:05:08;;;;;;;2.87;0.93;;;13.60;99.90;;;;;;5033610;28;21345;-79
2022/09/25 06:07:35;;;;;;;3.30;1.27;;;13.60;99.90;;;;;;5032414;28;20191;-80
2022/09/25 06:10:00;;;;;;;3.43;2.17;;;13.70;99.90;;;;;;5030275;28;20219;-80
2022/09/25 06:12:30;;;;;;;0.93;0.80;;;13.80;99.90;;;;;;5032299;28;20225;-81
2022/09/25 06:14:55;;;;;;;0.77;0.77;;;14.00;99.90;;;;;;5029507;28;20321;-81
2022/09/25 06:17:21;;;;;;;0.27;0.27;;;14.00;99.90;;;;;;5030955;28;20659;-81
2022/09/25 06:19:47;;;;;;;2.43;0.30;;;14.00;99.90;;;;;;5035482;28;20236;-80
2022/09/25 06:22:12;;;;;;;0.20;0.20;;;14.10;99.90;;;;;;5034273;28;20194;-81
2022/09/25 06:24:38;;;;;;;0.60;0.30;;;13.90;99.90;;;;;;5035902;28;20189;-80
2022/09/25 06:27:05;;;;;;;0.43;0.43;;;13.90;99.90;;;;;;5036479;28;20180;-80
2022/09/25 06:29:31;;;;;;;1.70;0.77;;;13.80;99.90;;;;;;5035668;28;20198;-81
2022/09/25 06:31:56;;;;;;;0.37;0.37;;;13.80;99.90;;;;;;5035532;28;20187;-80
2022/09/25 06:34:22;;;;;;;0.93;0.70;;;13.70;99.90;;;;;;5033318;28;20189;-80
2022/09/25 06:36:48;;;;;;;0.77;0.50;;;13.70;99.90;;;;;;5035372;28;20211;-80
2022/09/25 06:39:13;;;;;;;0.50;0.40;;;13.60;99.90;;;;;;5030666;28;20263;-79
2022/09/25 06:41:40;;;;;;;0.50;0.50;;;13.60;99.90;;;;;;5029025;28;20445;-80
2022/09/25 06:44:07;;;;;;;0.40;0.40;;;13.70;99.90;;;;;;5032321;28;20180;-80
2022/09/25 06:46:33;;;;;;;0.73;0.70;;;13.90;99.90;;;;;;5030460;28;20585;-80
2022/09/25 06:48:59;;;;;;;0.83;0.40;;;13.90;99.90;;;;;;5027274;28;20279;-80
2022/09/25 06:51:31;;;;;;;1.20;1.20;;;14.00;99.90;;;;;;5027392;28;20217;-80
2022/09/25 06:53:57;;;;;;;1.03;0.60;;;14.00;99.90;;;;;;5031287;28;20230;-81
2022/09/25 06:56:23;;;;;;;0.93;0.60;;;14.10;99.90;;;;;;5031009;28;20213;-80
2022/09/25 06:58:48;;;;;;;0.40;0.30;;;14.10;99.90;;;;;;5030020;28;20207;-80
2022/09/25 07:01:14;;;;;;;0.77;0.60;;;14.30;99.90;;;;;;5031782;28;20269;-80
2022/09/25 07:03:47;;;;;;;0.50;0.50;;;14.30;99.90;;;;;;5032376;28;20191;-80
2022/09/25 07:06:17;;;;;;;1.57;0.80;;;14.40;99.90;;;;;;5030522;28;20221;-80
2022/09/25 07:08:43;;;;;;;1.20;0.53;;;14.30;99.90;;;;;;5032388;28;20187;-80
2022/09/25 07:11:16;;;;;;;0.60;0.53;;;14.20;99.90;;;;;;5032097;28;20209;-80
2022/09/25 07:13:42;;;;;;;0.33;0.33;;;14.20;99.90;;;;;;5030294;28;20179;-80
2022/09/25 07:16:16;;;;;;;3.50;1.20;;;14.20;99.90;;;;;;5027763;28;20204;-80
2022/09/25 07:18:42;;;;;;;2.57;2.30;;;14.30;99.90;;;;;;5032220;28;20787;-80
2022/09/25 07:21:19;;;;;;;1.40;0.70;;;14.40;99.90;;;;;;5032060;28;20178;-80
2022/09/25 07:23:47;;;;;;;0.30;0.30;;;14.20;99.90;;;;;;5030043;28;20271;-80
2022/09/25 07:26:22;;;;;;;0.30;0.30;;;14.20;99.90;;;;;;5031222;28;20211;-80
2022/09/25 07:28:53;;;;;;;1.83;0.50;;;14.40;99.90;;;;;;5030831;28;20186;-80
2022/09/25 07:31:21;;;;;;;0.87;0.87;;;14.50;99.90;;;;;;5029322;28;20187;-80
2022/09/25 07:33:47;;;;;;;6.37;0.50;;;14.60;99.90;;;;;;5031454;28;20190;-80
2022/09/25 07:36:15;;;;;;;0.53;0.53;;;14.50;99.90;;;;;;5029526;28;20717;-80
2022/09/25 07:38:41;;;;;;;0.70;0.70;;;14.50;99.90;;;;;;5029332;28;20204;-80
2022/09/25 07:41:10;;;;;;;0.50;0.50;;;14.50;99.90;;;;;;5030550;28;20182;-80
2022/09/25 07:43:37;;;;;;;0.60;0.60;;;14.70;99.90;;;;;;5029363;28;20187;-80
2022/09/25 07:46:03;;;;;;;0.40;0.33;;;14.50;99.90;;;;;;5030743;28;20203;-80
2022/09/25 07:48:30;;;;;;;0.50;0.50;;;14.60;99.90;;;;;;5031860;28;20719;-80
2022/09/25 07:51:08;;;;;;;0.33;0.33;;;14.60;99.90;;;;;;5029507;28;20257;-80
2022/09/25 07:53:34;;;;;;;1.13;0.67;;;14.50;99.90;;;;;;5030186;28;20217;-80
2022/09/25 07:56:00;;;;;;;0.80;0.80;;;14.70;99.90;;;;;;5032488;28;21067;-80
2022/09/25 07:58:27;;;;;;;0.40;0.40;;;14.60;99.90;;;;;;5032528;28;20447;-80
2022/09/25 08:00:57;;;;;;;0.30;0.30;;;14.60;99.90;;;;;;5027406;28;20180;-80
2022/09/25 08:03:23;;;;;;;0.67;0.57;;;14.80;99.90;;;;;;5028404;28;20566;-80
2022/09/25 08:05:59;;;;;;;0.50;0.30;;;14.70;99.90;;;;;;5029750;28;20207;-81
2022/09/25 08:08:26;;;;;;;2.13;0.67;;;14.50;99.90;;;;;;5026249;28;20880;-80
2022/09/25 08:10:54;;;;;;;0.50;0.50;;;14.60;99.90;;;;;;5027944;28;20471;-80
2022/09/25 08:13:20;;;;;;;2.10;0.87;;;14.60;99.90;;;;;;5032632;28;20216;-80
2022/09/25 08:15:47;;;;;;;0.90;0.87;;;14.40;99.90;;;;;;5027395;28;20207;-81
2022/09/25 08:18:13;;;;;;;2.77;1.10;;;14.40;99.90;;;;;;5043005;28;20573;-80
2022/09/25 08:20:39;;;;;;;0.83;0.77;;;14.50;99.90;;;;;;5031480;28;20186;-80
2022/09/25 08:23:06;;;;;;;1.67;0.93;;;14.50;99.90;;;;;;5027221;28;20195;-80
2022/09/25 08:25:31;;;;;;;1.97;1.30;;;14.40;99.90;;;;;;5029028;28;20210;-80
2022/09/25 08:27:57;;;;;;;1.30;1.20;;;14.50;99.90;;;;;;5031334;28;20191;-79
2022/09/25 08:30:23;;;;;;;0.57;0.57;;;14.50;99.90;;;;;;5031646;28;20203;-80
2022/09/25 08:32:51;;;;;;;0.47;0.47;;;14.60;99.90;;;;;;5028084;28;20586;-80
2022/09/25 08:35:17;;;;;;;0.50;0.50;;;14.60;99.90;;;;;;5029330;28;20219;-80
2022/09/25 08:37:44;;;;;;;0.80;0.80;;;14.60;99.90;;;;;;5030455;28;20199;-80
2022/09/25 08:40:19;;;;;;;0.63;0.63;;;14.80;99.90;;;;;;5026077;28;20267;-79
2022/09/25 08:42:47;;;;;;;0.70;0.70;;;14.90;99.90;;;;;;5030080;28;20178;-80
2022/09/25 08:51:25;;;;;;;0.60;0.60;;;14.70;99.90;;;;;;5031696;28;20750;-80
2022/09/25 08:53:50;;;;;;;1.00;0.80;;;14.60;99.90;;;;;;5022752;28;20183;-80
2022/09/25 08:56:18;;;;;;;2.10;1.10;;;14.60;99.90;;;;;;5020675;28;20491;-81
2022/09/25 08:58:55;;;;;;;0.53;0.50;;;14.60;99.90;;;;;;5010228;28;20208;-80
2022/09/25 09:01:26;;;;;;;0.73;0.70;;;14.70;99.90;;;;;;5012119;28;20211;-80
2022/09/25 09:04:04;;;;;;;0.77;0.77;;;14.70;99.90;;;;;;5028341;28;20678;-80
2022/09/25 09:06:31;;;;;;;1.07;1.03;;;14.70;99.90;;;;;;5031858;28;20285;-80
2022/09/25 09:09:20;;;;;;;1.00;1.00;;;14.60;99.90;;;;;;5031765;28;20223;-80
2022/09/25 09:11:56;;;;;;;1.27;0.90;;;14.50;99.90;;;;;;5030464;28;20194;-81
2022/09/25 09:14:27;;;;;;;0.90;0.90;;;14.50;99.90;;;;;;5031570;28;20174;-80
2022/09/25 09:17:04;;;;;;;0.73;0.70;;;14.40;99.90;;;;;;5031902;28;20290;-80
2022/09/25 09:19:30;;;;;;;1.40;0.57;;;14.40;99.90;;;;;;5031735;28;20636;-81
2022/09/25 09:22:13;;;;;;;0.90;0.90;;;14.50;99.90;;;;;;5029907;28;20219;-80
2022/09/25 09:24:56;;;;;;;0.93;0.77;;;14.40;99.90;;;;;;5030691;28;20721;-80
2022/09/25 09:27:27;;;;;;;1.20;0.90;;;14.40;99.90;;;;;;5030215;28;20202;-80
2022/09/25 09:30:11;;;;;;;1.13;1.03;;;14.50;99.90;;;;;;5030806;28;20175;-81
2022/09/25 09:32:47;;;;;;;2.33;1.23;;;14.40;99.90;;;;;;5029650;28;20180;-80
2022/09/25 09:35:24;;;;;;;0.67;0.67;;;14.20;99.90;;;;;;5027480;28;20244;-80
2022/09/25 09:38:03;;;;;;;1.33;0.90;;;14.20;99.90;;;;;;5030519;28;20656;-84
2022/09/25 09:40:48;;;;;;;1.30;1.30;;;14.30;99.90;;;;;;5029772;28;20636;-81
2022/09/25 09:43:38;;;;;;;0.77;0.67;;;14.20;99.90;;;;;;5033464;28;20199;-80
2022/09/25 09:46:18;;;;;;;0.77;0.77;;;14.20;99.90;;;;;;5034834;28;20207;-80
2022/09/25 09:49:03;;;;;;;1.40;0.73;;;14.10;99.90;;;;;;5034147;28;20630;-80
2022/09/25 09:51:37;;;;;;;1.87;1.57;;;14.00;99.90;;;;;;5032930;28;20724;-80
2022/09/25 09:54:24;;;;;;;0.53;0.53;;;14.00;99.90;;;;;;5033792;28;20265;-80
2022/09/25 09:56:51;;;;;;;1.30;1.00;;;14.00;99.90;;;;;;5031037;28;20285;-80
2022/09/25 09:59:38;;;;;;;0.27;0.27;;;14.00;99.90;;;;;;5032511;28;20268;-80
2022/09/25 10:02:33;;;;;;;0.80;0.80;;;14.00;99.90;;;;;;5032778;28;21173;-80
2022/09/25 10:05:03;;;;;;;1.23;0.97;;;14.10;99.90;;;;;;5031961;28;20221;-80
2022/09/25 10:07:32;;;;;;;2.83;1.53;;;14.10;99.90;;;;;;5035876;28;20185;-79
2022/09/25 10:09:58;;;;;;;0.40;0.40;;;14.20;99.90;;;;;;5035749;28;20192;-79
2022/09/25 10:12:32;;;;;;;0.93;0.63;;;14.20;99.90;;;;;;5034343;28;20191;-79
2022/09/25 10:15:03;;;;;;;0.73;0.50;;;14.10;99.90;;;;;;5031885;28;20217;-80
2022/09/25 10:17:29;;;;;;;1.53;0.70;;;14.40;99.90;;;;;;5030362;28;20647;-80
2022/09/25 10:20:13;;;;;;;0.97;0.83;;;14.30;99.90;;;;;;5028295;28;20214;-80
2022/09/25 10:22:41;;;;;;;0.87;0.80;;;14.20;99.90;;;;;;5024041;28;20222;-80
2022/09/25 10:25:07;;;;;;;0.47;0.47;;;14.00;99.90;;;;;;5032368;28;20229;-80
2022/09/25 10:27:44;;;;;;;0.50;0.50;;;13.80;99.90;;;;;;5029217;28;21171;-79
2022/09/25 10:30:10;;;;;;;0.50;0.50;;;13.80;99.90;;;;;;5037960;28;20182;-79
2022/09/25 10:32:49;;;;;;;0.97;0.87;;;13.90;99.90;;;;;;5036556;28;20179;-79
2022/09/25 10:35:16;;;;;;;0.50;0.50;;;13.80;99.90;;;;;;5041499;28;20930;-79
2022/09/25 10:37:42;;;;;;;0.40;0.40;;;13.70;99.90;;;;;;5038739;28;20232;-80
2022/09/25 10:40:21;;;;;;;1.00;0.70;;;13.60;99.90;;;;;;5042916;28;20198;-79
2022/09/25 10:42:47;;;;;;;1.10;0.97;;;13.60;99.90;;;;;;5041206;28;20252;-79
2022/09/25 10:45:39;;;;;;;0.63;0.63;;;13.60;99.90;;;;;;5038983;28;20321;-80
2022/09/25 10:51:11;;;;;;;0.30;0.30;;;13.70;99.90;;;;;;5040434;28;20216;-81
2022/09/25 10:53:36;;;;;;;0.50;0.50;;;13.70;99.90;;;;;;5039069;28;20194;-80
2022/09/25 10:56:11;;;;;;;3.70;1.20;;;13.70;99.90;;;;;;5036766;28;20206;-80
2022/09/25 10:58:56;;;;;;;4.17;0.80;;;13.60;99.90;;;;;;5032853;28;20676;-81
2022/09/25 11:01:35;;;;;;;0.47;0.37;;;13.60;99.90;;;;;;5034706;28;20251;-80
2022/09/25 11:04:05;;;;;;;1.00;0.73;;;13.60;99.90;;;;;;5039190;28;20197;-80
2022/09/25 11:06:33;;;;;;;0.50;0.50;;;13.60;99.90;;;;;;5038578;28;20743;-80
2022/09/25 11:09:31;;;;;;;0.50;0.50;;;13.60;99.90;;;;;;5038465;28;20941;-80
2022/09/25 11:12:25;;;;;;;0.43;0.40;;;13.60;99.90;;;;;;5026744;28;20221;-80
2022/09/25 11:15:01;;;;;;;0.30;0.30;;;13.50;99.90;;;;;;5040652;28;20193;-80
2022/09/25 11:17:31;;;;;;;0.10;0.10;;;13.40;99.90;;;;;;5040334;28;20193;-80
2022/09/25 11:20:28;;;;;;;0.53;0.53;;;13.60;99.90;;;;;;5037875;28;20268;-80
2022/09/25 11:23:14;;;;;;;0.37;0.37;;;13.60;99.90;;;;;;5035389;28;20178;-80
2022/09/25 11:26:04;;;;;;;1.70;1.60;;;13.60;99.90;;;;;;5034429;28;21083;-80
2022/09/25 11:28:39;;;;;;;3.80;0.40;;;13.50;99.90;;;;;;5032892;28;20181;-80
2022/09/25 11:31:48;;;;;;;0.70;0.67;;;13.50;99.90;;;;;;5053734;28;20321;-80
2022/09/25 11:34:22;;;;;;;0.47;0.47;;;13.60;99.90;;;;;;5015412;28;20434;-80
2022/09/25 11:37:04;;;;;;;2.87;1.20;;;13.60;99.90;;;;;;5013854;28;20215;-80
2022/09/25 11:43:11;;;;;;;0.63;0.60;;;13.60;99.90;;;;;;5036428;28;20309;-80
2022/09/25 11:45:46;;;;;;;0.40;0.40;;;13.50;99.90;;;;;;5037164;28;20901;-79
2022/09/25 11:48:20;;;;;;;0.43;0.43;;;13.50;99.90;;;;;;5032765;28;20175;-80
2022/09/25 11:50:57;;;;;;;0.30;0.30;;;13.40;99.90;;;;;;5037212;28;20201;-80
2022/09/25 11:53:40;;;;;;;0.40;0.40;;;13.50;99.90;;;;;;5036762;28;20180;-80
2022/09/25 11:56:27;;;;;;;0.37;0.37;;;13.50;99.90;;;;;;5033622;28;20203;-80
2022/09/25 11:58:59;;;;;;;0.10;0.10;;;13.40;99.90;;;;;;5034870;28;20225;-80
2022/09/25 12:01:31;;;;;;;3.40;0.63;;;13.30;99.90;;;;;;5033393;28;20182;-80
2022/09/25 12:04:02;;;;;;;0.53;0.53;;;13.40;99.90;;;;;;5036770;28;20182;-80
2022/09/25 12:07:12;;;;;;;0.50;0.30;;;13.40;99.90;;;;;;5032411;28;20700;-79
2022/09/25 12:10:25;;;;;;;0.47;0.30;;;13.40;99.90;;;;;;5034839;28;20212;-80
2022/09/25 12:13:30;;;;;;;1.40;0.60;;;13.40;99.90;;;;;;5026431;28;20209;-79
2022/09/25 12:16:11;;;;;;;0.43;0.43;;;13.40;99.90;;;;;;5030204;28;20221;-78
2022/09/25 12:19:13;;;;;;;0.60;0.33;;;13.40;99.90;;;;;;5031540;28;20267;-79
2022/09/25 12:22:16;;;;;;;0.60;0.47;;;13.40;99.90;;;;;;5032212;28;20662;-79
2022/09/25 12:25:03;;;;;;;0.30;0.20;;;13.40;99.90;;;;;;5011855;28;20896;-78
2022/09/25 12:27:40;;;;;;;0.40;0.40;;;13.40;99.90;;;;;;5034112;28;20268;-79
2022/09/25 12:30:19;;;;;;;0.17;0.17;;;13.30;99.90;;;;;;5033129;28;20186;-79
2022/09/25 12:33:06;;;;;;;0.23;0.23;;;13.40;99.90;;;;;;5031878;28;20186;-79
2022/09/25 12:35:53;;;;;;;0.37;0.37;;;13.50;99.90;;;;;;5034521;28;20206;-79
2022/09/25 12:38:29;;;;;;;0.60;0.60;;;13.70;99.90;;;;;;5034331;28;20313;-79
2022/09/25 12:41:18;;;;;;;0.50;0.50;;;13.70;99.90;;;;;;5035578;28;20193;-79
2022/09/25 12:43:53;;;;;;;0.43;0.43;;;13.50;99.90;;;;;;5033578;28;20717;-79
2022/09/25 12:46:31;;;;;;;0.27;0.27;;;13.60;99.90;;;;;;5031518;28;20229;-79
2022/09/25 12:49:07;;;;;;;0.40;0.40;;;13.70;99.90;;;;;;5034518;28;20216;-79
2022/09/25 12:51:52;;;;;;;0.43;0.43;;;13.60;99.90;;;;;;5033931;28;20255;-79
2022/09/25 12:54:31;;;;;;;0.20;0.20;;;13.40;99.90;;;;;;5034103;28;20186;-79
2022/09/25 12:57:08;;;;;;;0.40;0.33;;;13.30;99.90;;;;;;5033999;28;20205;-79
2022/09/25 12:59:42;;;;;;;0.30;0.30;;;13.30;99.90;;;;;;5033340;28;20228;-78
2022/09/25 13:02:08;;;;;;;0.80;0.47;;;13.40;99.90;;;;;;5033493;28;20169;-79
2022/09/25 13:05:11;;;;;;;0.20;0.20;;;13.50;99.90;;;;;;5030863;28;20669;-79
2022/09/25 13:08:09;;;;;;;0.70;0.70;;;13.40;99.90;;;;;;5032939;28;20220;-80
2022/09/25 13:10:42;;;;;;;0.57;0.57;;;13.30;99.90;;;;;;5051039;28;20185;-80
2022/09/25 13:13:18;;;;;;;0.30;0.30;;;13.40;99.90;;;;;;5031398;28;21725;-80
2022/09/25 13:15:49;;;;;;;2.30;0.43;;;13.30;99.90;;;;;;5035734;28;20213;-81
2022/09/25 13:18:18;;;;;;;0.30;0.30;;;13.30;99.90;;;;;;5032446;28;20206;-80
2022/09/25 13:20:48;;;;;;;0.43;0.43;;;13.30;99.90;;;;;;5034458;28;20179;-80
2022/09/25 13:23:20;;;;;;;0.10;0.10;;;13.30;99.90;;;;;;5032507;28;20233;-81
2022/09/25 13:25:58;;;;;;;0.30;0.20;;;13.30;99.90;;;;;;5036062;28;20204;-80
2022/09/25 13:28:33;;;;;;;0.17;0.17;;;13.30;99.90;;;;;;5032244;28;20278;-80
2022/09/25 13:31:03;;;;;;;0.10;0.10;;;13.30;99.90;;;;;;5033539;28;20212;-81
2022/09/25 13:33:37;;;;;;;0.97;0.50;;;13.50;99.90;;;;;;5034730;28;20239;-81
2022/09/25 13:36:24;;;;;;;0.80;0.40;;;13.60;99.90;;;;;;5032678;28;20301;-80
2022/09/25 13:42:20;;;;;;;0.20;0.20;;;13.60;99.90;;;;;;5034820;28;20188;-80
2022/09/25 13:45:06;;;;;;;0.20;0.20;;;13.80;99.90;;;;;;5034310;28;20179;-81